Time;durP1;ratioP1;P1;durP2;ratioP2;P2;SDS_P1;SDS_P2;PMS_P1;PMS_P2;Temp;Humidity;BMP_temperature;BMP_pressure;BME280_temperature;BME280_humidity;BME280_pressure;Samples;Min_cycle;Max_cycle;Signal;HPM_P1;HPM_P2
2022/10/04 00:01:28;;;;;;;;;;;8.00;99.90;;;;;;5002415;28;19910;-78
2022/10/04 00:04:04;;;;;;;;;;;8.00;99.90;;;;;;5001998;28;19917;-78
2022/10/04 00:06:30;;;;;;;;;;;8.00;99.90;;;;;;4987410;28;19929;-77
2022/10/04 00:08:58;;;;;;;;;;;7.90;99.90;;;;;;4966010;28;19914;-77
2022/10/04 00:11:24;;;;;;;;;;;7.80;99.90;;;;;;4982127;28;19973;-77
2022/10/04 00:13:53;;;;;;;;;;;7.80;99.90;;;;;;4998597;28;20232;-78
2022/10/04 00:16:29;;;;;;;;;;;7.80;99.90;;;;;;4984405;28;19918;-78
2022/10/04 00:19:14;;;;;;;;;;;7.80;99.90;;;;;;4985911;28;19910;-78
2022/10/04 00:21:52;;;;;;;;;;;7.80;99.90;;;;;;5017542;28;19995;-78
2022/10/04 00:24:21;;;;;;;;;;;7.80;99.90;;;;;;5018241;28;19909;-78
2022/10/04 00:26:47;;;;;;;;;;;7.90;99.90;;;;;;5001460;28;19909;-77
2022/10/04 00:29:42;;;;;;;;;;;7.90;99.90;;;;;;5002720;28;19913;-77
2022/10/04 00:32:24;;;;;;;;;;;7.90;99.90;;;;;;5001170;28;19909;-78
2022/10/04 00:34:50;;;;;;;;;;;7.80;99.90;;;;;;5003996;28;20128;-80
2022/10/04 00:37:20;;;;;;;;;;;7.80;99.90;;;;;;4988692;28;20144;-78
2022/10/04 00:39:46;;;;;;;;;;;7.80;99.90;;;;;;5005241;28;19909;-77
2022/10/04 00:42:31;;;;;;;;;;;7.60;99.90;;;;;;5004759;28;19960;-77
2022/10/04 00:45:23;;;;;;;;;;;7.50;99.90;;;;;;5005044;28;19944;-78
2022/10/04 00:47:49;;;;;;;;;;;7.50;99.90;;;;;;5004458;28;20153;-78
2022/10/04 00:50:32;;;;;;;;;;;7.40;99.90;;;;;;5006150;28;19924;-78
2022/10/04 00:52:59;;;;;;;;;;;7.40;99.90;;;;;;5005037;28;19910;-77
2022/10/04 00:55:32;;;;;;;;;;;7.40;99.90;;;;;;5004855;28;19917;-78
2022/10/04 00:57:58;;;;;;;;;;;7.40;99.90;;;;;;5004107;28;19957;-78
2022/10/04 01:00:24;;;;;;;;;;;7.40;99.90;;;;;;5004891;28;19981;-77
2022/10/04 01:02:59;;;;;;;;;;;7.40;99.90;;;;;;5004501;28;19918;-78
2022/10/04 01:05:30;;;;;;;;;;;7.40;99.90;;;;;;5004705;28;19914;-78
2022/10/04 01:08:06;;;;;;;;;;;7.50;99.90;;;;;;5003633;28;19988;-77
2022/10/04 01:10:44;;;;;;;;;;;7.50;99.90;;;;;;5004717;28;19910;-77
2022/10/04 01:13:16;;;;;;;;;;;7.50;99.90;;;;;;5003785;28;19921;-77
2022/10/04 01:15:55;;;;;;;;;;;7.30;99.90;;;;;;5004603;28;20236;-75
2022/10/04 01:18:21;;;;;;;;;;;7.30;99.90;;;;;;5004104;28;19909;-76
2022/10/04 01:20:56;;;;;;;;;;;7.20;99.90;;;;;;5005707;28;19916;-76
2022/10/04 01:23:53;;;;;;;;;;;7.10;99.90;;;;;;5005624;28;19910;-76
2022/10/04 01:26:42;;;;;;;;;;;7.10;99.90;;;;;;5005251;28;19910;-77
2022/10/04 01:29:08;;;;;;;;;;;7.10;99.90;;;;;;5020421;28;19913;-77
2022/10/04 01:31:35;;;;;;;;;;;7.20;99.90;;;;;;5020102;28;19995;-76
2022/10/04 01:34:01;;;;;;;;;;;7.20;99.90;;;;;;5004036;28;19910;-76
2022/10/04 01:36:27;;;;;;;;;;;7.20;99.90;;;;;;5003462;28;19952;-76
2022/10/04 01:38:53;;;;;;;;;;;7.20;99.90;;;;;;5003934;28;19952;-76
2022/10/04 01:41:21;;;;;;;;;;;7.20;99.90;;;;;;5004147;28;19918;-76
2022/10/04 01:43:48;;;;;;;;;;;7.20;99.90;;;;;;5004123;28;19910;-76
2022/10/04 01:46:30;;;;;;;;;;;7.10;99.90;;;;;;5002808;28;19929;-79
2022/10/04 01:48:56;;;;;;;;;;;7.10;99.90;;;;;;4984382;28;20393;-76
2022/10/04 01:51:23;;;;;;;;;;;7.10;99.90;;;;;;4984548;28;19911;-76
2022/10/04 01:53:55;;;;;;;;;;;7.10;99.90;;;;;;4985933;28;19918;-77
2022/10/04 01:56:24;;;;;;;;;;;7.10;99.90;;;;;;5003645;28;19910;-77
2022/10/04 01:58:57;;;;;;;;;;;7.10;99.90;;;;;;4993315;28;19918;-76
2022/10/04 02:01:47;;;;;;;;;;;7.10;99.90;;;;;;4984355;28;19977;-77
2022/10/04 02:04:29;;;;;;;;;;;7.10;99.90;;;;;;4968420;28;19918;-76
2022/10/04 02:06:56;;;;;;;;;;;7.00;99.90;;;;;;5000274;28;19922;-76
2022/10/04 02:09:27;;;;;;;;;;;6.90;99.90;;;;;;4967860;28;19914;-76
2022/10/04 02:11:53;;;;;;;;;;;6.80;99.90;;;;;;4968651;28;19992;-78
2022/10/04 02:14:24;;;;;;;;;;;6.80;99.90;;;;;;4968052;28;20228;-76
2022/10/04 02:16:51;;;;;;;;;;;6.80;99.90;;;;;;4967789;28;19918;-76
2022/10/04 02:19:16;;;;;;;;;;;6.80;99.90;;;;;;4981634;28;20137;-76
2022/10/04 02:21:42;;;;;;;;;;;6.70;99.90;;;;;;5003598;28;19981;-76
2022/10/04 02:24:08;;;;;;;;;;;6.70;99.90;;;;;;5004747;28;20096;-76
2022/10/04 02:26:33;;;;;;;;;;;6.70;99.90;;;;;;5005098;28;19945;-77
2022/10/04 02:28:59;;;;;;;;;;;6.70;99.90;;;;;;5010069;28;19914;-76
2022/10/04 02:34:09;;;;;;;;;;;6.70;99.90;;;;;;5003454;28;20465;-76
2022/10/04 02:36:34;;;;;;;;;;;6.70;99.90;;;;;;5003089;28;19918;-76
2022/10/04 02:39:03;;;;;;;;;;;6.70;99.90;;;;;;4986197;28;19910;-77
2022/10/04 02:41:31;;;;;;;;;;;6.70;99.90;;;;;;5002905;28;19910;-77
2022/10/04 02:44:25;;;;;;;;;;;6.70;99.90;;;;;;5002920;28;19933;-76
2022/10/04 02:46:51;;;;;;;;;;;6.60;99.90;;;;;;5004052;28;19910;-76
2022/10/04 02:49:38;;;;;;;;;;;6.60;99.90;;;;;;4999473;28;19989;-77
2022/10/04 02:52:09;;;;;;;;;;;6.50;99.90;;;;;;4983287;28;19982;-76
2022/10/04 02:54:51;;;;;;;;;;;6.50;99.90;;;;;;4974514;28;19924;-76
2022/10/04 02:57:18;;;;;;;;;;;6.50;99.90;;;;;;4982912;28;19913;-76
2022/10/04 02:59:44;;;;;;;;;;;6.50;99.90;;;;;;4999331;28;19985;-77
2022/10/04 03:02:27;;;;;;;;;;;6.60;99.90;;;;;;4982902;28;19914;-76
2022/10/04 03:04:55;;;;;;;;;;;6.60;99.90;;;;;;4982931;28;19956;-76
2022/10/04 03:07:20;;;;;;;;;;;6.60;99.90;;;;;;4982724;28;19917;-77
2022/10/04 03:09:46;;;;;;;;;;;6.70;99.90;;;;;;4998893;28;19910;-76
2022/10/04 03:12:11;;;;;;;;;;;6.70;99.90;;;;;;4982936;28;19910;-76
2022/10/04 03:14:37;;;;;;;;;;;6.70;99.90;;;;;;4982788;28;19910;-76
2022/10/04 03:17:04;;;;;;;;;;;6.70;99.90;;;;;;4982338;28;19953;-77
2022/10/04 03:19:30;;;;;;;;;;;6.80;99.90;;;;;;4982515;28;19957;-76
2022/10/04 03:21:58;;;;;;;;;;;6.70;99.90;;;;;;4983008;28;19914;-76
2022/10/04 03:24:29;;;;;;;;;;;6.70;99.90;;;;;;4982912;28;19917;-76
2022/10/04 03:26:55;;;;;;;;;;;6.70;99.90;;;;;;4982537;28;19997;-76
2022/10/04 03:29:23;;;;;;;;;;;6.70;99.90;;;;;;4982466;28;20210;-77
2022/10/04 03:31:50;;;;;;;;;;;6.70;99.90;;;;;;4982502;28;19960;-78
2022/10/04 03:34:24;;;;;;;;;;;6.70;99.90;;;;;;4982702;28;19910;-76
2022/10/04 03:36:51;;;;;;;;;;;6.70;99.90;;;;;;4988490;28;20152;-77
2022/10/04 03:39:31;;;;;;;;;;;6.70;99.90;;;;;;5002053;28;19910;-77
2022/10/04 03:41:57;;;;;;;;;;;6.70;99.90;;;;;;5001507;28;20201;-76
2022/10/04 03:44:23;;;;;;;;;;;6.70;99.90;;;;;;5001590;28;20193;-76
2022/10/04 03:46:49;;;;;;;;;;;6.70;99.90;;;;;;4998938;28;19918;-76
2022/10/04 03:49:26;;;;;;;;;;;6.70;99.90;;;;;;4998618;28;19922;-77
2022/10/04 03:51:52;;;;;;;;;;;6.70;99.90;;;;;;4982604;28;19914;-76
2022/10/04 03:54:22;;;;;;;;;;;6.70;99.90;;;;;;4982438;28;20129;-77
2022/10/04 03:56:48;;;;;;;;;;;6.70;99.90;;;;;;4982133;28;19910;-76
2022/10/04 03:59:15;;;;;;;;;;;6.70;99.90;;;;;;4970919;28;19910;-76
2022/10/04 04:01:46;;;;;;;;;;;6.70;99.90;;;;;;4981982;28;20017;-76
2022/10/04 04:04:29;;;;;;;;;;;6.70;99.90;;;;;;4982419;28;19973;-77
2022/10/04 04:06:55;;;;;;;;;;;6.70;99.90;;;;;;4966123;28;19914;-76
2022/10/04 04:09:45;;;;;;;;;;;6.70;99.90;;;;;;4984214;28;20001;-76
2022/10/04 04:12:17;;;;;;;;;;;6.70;99.90;;;;;;5002969;28;20224;-77
2022/10/04 04:14:43;;;;;;;;;;;6.80;99.90;;;;;;5005643;28;20251;-76
2022/10/04 04:17:30;;;;;;;;;;;6.80;99.90;;;;;;5005252;28;19910;-77
2022/10/04 04:19:57;;;;;;;;;;;6.80;99.90;;;;;;5005521;28;20254;-77
2022/10/04 04:22:23;;;;;;;;;;;6.90;99.90;;;;;;5005061;28;20112;-77
2022/10/04 04:24:49;;;;;;;;;;;6.90;99.90;;;;;;5005418;28;19914;-77
2022/10/04 04:27:15;;;;;;;;;;;6.90;99.90;;;;;;5004974;28;20325;-77
2022/10/04 04:29:45;;;;;;;;;;;6.80;99.90;;;;;;5005354;28;19909;-78
2022/10/04 04:32:15;;;;;;;;;;;6.80;99.90;;;;;;5005915;28;19913;-77
2022/10/04 04:34:57;;;;;;;;;;;6.80;99.90;;;;;;5005473;28;19988;-77
2022/10/04 04:37:23;;;;;;;;;;;6.90;99.90;;;;;;5004516;28;19909;-77
2022/10/04 04:39:53;;;;;;;;;;;6.90;99.90;;;;;;5005014;28;20282;-77
2022/10/04 04:42:40;;;;;;;;;;;6.90;99.90;;;;;;4989449;28;19921;-77
2022/10/04 04:45:14;;;;;;;;;;;6.80;99.90;;;;;;5004650;28;20219;-76
2022/10/04 04:47:50;;;;;;;;;;;6.80;99.90;;;;;;5004727;28;19922;-76
2022/10/04 04:50:33;;;;;;;;;;;6.80;99.90;;;;;;5005053;28;19917;-76
2022/10/04 04:53:23;;;;;;;;;;;6.90;99.90;;;;;;5004401;28;19921;-76
2022/10/04 04:55:52;;;;;;;;;;;6.90;99.90;;;;;;4999687;28;19932;-77
2022/10/04 04:58:23;;;;;;;;;;;6.90;99.90;;;;;;5005182;28;19909;-77
2022/10/04 05:01:00;;;;;;;;;;;6.90;99.90;;;;;;5004475;28;19910;-76
2022/10/04 05:03:29;;;;;;;;;;;6.90;99.90;;;;;;5004156;28;19922;-77
2022/10/04 05:05:56;;;;;;;;;;;6.90;99.90;;;;;;5004109;28;19959;-77
2022/10/04 05:08:26;;;;;;;;;;;6.90;99.90;;;;;;5004467;28;19914;-76
2022/10/04 05:10:58;;;;;;;;;;;6.90;99.90;;;;;;5004146;28;19980;-76
2022/10/04 05:13:57;;;;;;;;;;;6.80;99.90;;;;;;5005597;28;19910;-76
2022/10/04 05:16:29;;;;;;;;;;;6.80;99.90;;;;;;4995830;28;19941;-77
2022/10/04 05:18:57;;;;;;;;;;;6.80;99.90;;;;;;4984796;28;19910;-76
2022/10/04 05:21:26;;;;;;;;;;;6.80;99.90;;;;;;4984914;28;20200;-77
2022/10/04 05:23:51;;;;;;;;;;;6.80;99.90;;;;;;5004582;28;19909;-76
2022/10/04 05:26:22;;;;;;;;;;;6.80;99.90;;;;;;5003937;28;20219;-76
2022/10/04 05:28:48;;;;;;;;;;;6.70;99.90;;;;;;5003686;28;19913;-76
2022/10/04 05:31:24;;;;;;;;;;;6.70;99.90;;;;;;5004178;28;19925;-77
2022/10/04 05:33:51;;;;;;;;;;;6.70;99.90;;;;;;5004048;28;19949;-77
2022/10/04 05:36:34;;;;;;;;;;;6.80;99.90;;;;;;5003628;28;19948;-76
2022/10/04 05:39:32;;;;;;;;;;;6.80;99.90;;;;;;5004790;28;20165;-76
2022/10/04 05:42:06;;;;;;;;;;;6.80;99.90;;;;;;4985604;28;20224;-76
2022/10/04 05:44:36;;;;;;;;;;;6.90;99.90;;;;;;4984630;28;20137;-76
2022/10/04 05:47:05;;;;;;;;;;;6.90;99.90;;;;;;5000815;28;19910;-76
2022/10/04 05:49:39;;;;;;;;;;;7.00;99.90;;;;;;5003891;28;19914;-76
2022/10/04 05:52:34;;;;;;;;;;;7.00;99.90;;;;;;4987559;28;19922;-76
2022/10/04 05:55:40;;;;;;;;;;;7.00;99.90;;;;;;5002979;28;19910;-77
2022/10/04 05:58:20;;;;;;;;;;;7.00;99.90;;;;;;5003479;28;19916;-79
2022/10/04 06:01:10;;;;;;;;;;;7.00;99.90;;;;;;5003135;28;19956;-77
2022/10/04 06:04:13;;;;;;;;;;;7.00;99.90;;;;;;5004605;28;19916;-77
2022/10/04 06:07:03;;;;;;;;;;;7.00;99.90;;;;;;5003544;28;19913;-77
2022/10/04 06:10:10;;;;;;;;;;;7.10;99.90;;;;;;5003525;28;19949;-77
2022/10/04 06:12:56;;;;;;;;;;;7.20;99.90;;;;;;5004305;28;19917;-77
2022/10/04 06:15:51;;;;;;;;;;;7.20;99.90;;;;;;5003373;28;19910;-78
2022/10/04 06:18:27;;;;;;;;;;;7.20;99.90;;;;;;5002302;28;20240;-77
2022/10/04 06:21:05;;;;;;;;;;;7.20;99.90;;;;;;5004531;28;19910;-77
2022/10/04 06:23:32;;;;;;;;;;;7.30;99.90;;;;;;5003265;28;19925;-69
2022/10/04 06:26:00;;;;;;;;;;;7.30;99.90;;;;;;5003262;28;19917;-69
2022/10/04 06:28:30;;;;;;;;;;;7.30;99.90;;;;;;5002980;28;19914;-71
2022/10/04 06:31:02;;;;;;;;;;;7.30;99.90;;;;;;5002061;28;19987;-68
2022/10/04 06:33:47;;;;;;;;;;;7.40;99.90;;;;;;5004396;28;19949;-69
2022/10/04 06:36:43;;;;;;;;;;;7.50;99.90;;;;;;5002225;28;19916;-70
2022/10/04 06:39:37;;;;;;;;;;;7.50;99.90;;;;;;5003230;28;19975;-70
2022/10/04 06:42:44;;;;;;;;;;;7.50;99.90;;;;;;5002602;28;19916;-69
2022/10/04 06:45:55;;;;;;;;;;;7.50;99.90;;;;;;5001818;28;20232;-69
2022/10/04 06:48:27;;;;;;;;;;;7.60;99.90;;;;;;4984004;28;19922;-76
2022/10/04 06:51:18;;;;;;;;;;;7.70;99.90;;;;;;4985626;28;21070;-76
2022/10/04 06:54:35;;;;;;;;;;;7.70;99.90;;;;;;5002818;28;19916;-77
2022/10/04 06:57:25;;;;;;;;;;;7.80;99.90;;;;;;5001437;28;20220;-76
2022/10/04 07:00:00;;;;;;;;;;;7.90;99.90;;;;;;5001702;28;19913;-76
2022/10/04 07:02:29;;;;;;;;;;;7.90;99.90;;;;;;5002113;28;19951;-77
2022/10/04 07:05:01;;;;;;;;;;;8.00;99.90;;;;;;5002411;28;19918;-76
2022/10/04 07:07:34;;;;;;;;;;;8.10;99.90;;;;;;4982289;28;19913;-76
2022/10/04 07:10:15;;;;;;;;;;;8.10;99.90;;;;;;4983004;28;19952;-78
2022/10/04 07:12:46;;;;;;;;;;;8.20;99.90;;;;;;4982591;28;20441;-76
2022/10/04 07:15:17;;;;;;;;;;;8.20;99.90;;;;;;4966751;28;19910;-76
2022/10/04 07:17:43;;;;;;;;;;;8.10;99.90;;;;;;4982719;28;19917;-76
2022/10/04 07:20:26;;;;;;;;;;;8.10;99.90;;;;;;4966617;28;20000;-77
2022/10/04 07:22:58;;;;;;;;;;;8.10;99.90;;;;;;4998594;28;19910;-76
2022/10/04 07:25:32;;;;;;;;;;;8.20;99.90;;;;;;4983107;28;19957;-76
2022/10/04 07:30:54;;;;;;;;;;;8.30;99.90;;;;;;5002850;28;20179;-76
2022/10/04 07:33:21;;;;;;;;;;;8.40;99.90;;;;;;5002130;28;20319;-76
2022/10/04 07:35:52;;;;;;;;;;;8.40;99.90;;;;;;5001803;28;19949;-77
2022/10/04 07:38:28;;;;;;;;;;;8.50;99.90;;;;;;5002020;28;19916;-76
2022/10/04 07:40:57;;;;;;;;;;;8.50;99.90;;;;;;5002233;28;19960;-76
2022/10/04 07:43:26;;;;;;;;;;;8.60;99.90;;;;;;5002556;28;19913;-76
2022/10/04 07:45:51;;;;;;;;;;;8.60;99.90;;;;;;5002051;28;19933;-76
2022/10/04 07:48:23;;;;;;;;;;;8.60;99.90;;;;;;5000990;28;19914;-78
2022/10/04 07:51:08;;;;;;;;;;;8.70;99.90;;;;;;4986216;28;19917;-76
2022/10/04 07:53:54;;;;;;;;;;;8.80;99.90;;;;;;5001708;28;20224;-75
2022/10/04 07:56:30;;;;;;;;;;;8.80;99.90;;;;;;5001407;28;19918;-76
2022/10/04 07:59:08;;;;;;;;;;;8.80;99.90;;;;;;5002266;28;20116;-76
2022/10/04 08:02:02;;;;;;;;;;;8.80;99.90;;;;;;5003016;28;19916;-75
2022/10/04 08:04:43;;;;;;;;;;;9.00;99.90;;;;;;4982402;28;19910;-76
2022/10/04 08:07:25;;;;;;;;;;;9.10;99.90;;;;;;4983639;28;19980;-76
2022/10/04 08:10:16;;;;;;;;;;;9.20;99.90;;;;;;4982810;28;19961;-77
2022/10/04 08:13:11;;;;;;;;;;;9.40;99.90;;;;;;4999232;28;20175;-77
2022/10/04 08:15:38;;;;;;;;;;;9.50;99.90;;;;;;5004905;28;19910;-77
2022/10/04 08:18:25;;;;;;;;;;;9.60;99.90;;;;;;5000492;28;19916;-77
2022/10/04 08:20:58;;;;;;;;;;;9.70;99.90;;;;;;5002992;28;19917;-77
2022/10/04 08:23:42;;;;;;;;;;;9.80;99.90;;;;;;5000766;28;19932;-76
2022/10/04 08:26:26;;;;;;;;;;;9.90;99.90;;;;;;5002478;28;19909;-77
2022/10/04 08:32:22;;;;;;;;;;;10.00;99.90;;;;;;5002527;28;20235;-77
2022/10/04 08:35:20;;;;;;;;;;;10.10;99.90;;;;;;4981997;28;19910;-77
2022/10/04 08:38:41;;;;;;;;;;;10.20;99.90;;;;;;4987165;28;19968;-77
2022/10/04 08:41:26;;;;;;;;;;;10.30;99.90;;;;;;5020250;28;19917;-77
2022/10/04 08:44:01;;;;;;;;;;;10.40;99.90;;;;;;4985703;28;19910;-77
2022/10/04 08:46:50;;;;;;;;;;;10.60;99.90;;;;;;5002386;28;19910;-77
2022/10/04 08:49:45;;;;;;;;;;;10.60;99.90;;;;;;5001920;28;19928;-75
2022/10/04 08:52:39;;;;;;;;;;;10.70;99.90;;;;;;5000226;28;19914;-78
2022/10/04 08:55:36;;;;;;;;;;;10.80;99.90;;;;;;5002719;28;20291;-77
2022/10/04 08:58:25;;;;;;;;;;;10.90;99.90;;;;;;5004937;28;20181;-77
2022/10/04 09:00:57;;;;;;;;;;;11.10;99.90;;;;;;5004821;28;20140;-77
2022/10/04 09:03:44;;;;;;;;;;;11.20;99.90;;;;;;5005301;28;19913;-77
2022/10/04 09:06:48;;;;;;;;;;;11.30;99.90;;;;;;5005256;28;19922;-74
2022/10/04 09:09:51;;;;;;;;;;;11.50;99.90;;;;;;5024567;28;20264;-81
2022/10/04 09:12:33;;;;;;;;;;;11.60;99.90;;;;;;5006145;28;20409;-79
2022/10/04 09:15:21;;;;;;;;;;;11.50;99.90;;;;;;5005066;28;19910;-79
2022/10/04 09:17:52;;;;;;;;;;;11.60;99.90;;;;;;4987758;28;19980;-78
2022/10/04 09:20:31;;;;;;;;;;;11.60;99.90;;;;;;5002291;28;19945;-79
2022/10/04 09:23:24;;;;;;;;;;;11.70;99.90;;;;;;5005302;28;20095;-79
2022/10/04 09:26:13;;;;;;;;;;;11.80;99.90;;;;;;5004648;28;19922;-80
2022/10/04 09:28:58;;;;;;;;;;;11.90;99.90;;;;;;5005440;28;19922;-78
2022/10/04 09:31:56;;;;;;;;;;;12.00;99.90;;;;;;5007186;28;19917;-78
2022/10/04 09:34:44;;;;;;;;;;;12.00;99.90;;;;;;4995222;28;19910;-78
2022/10/04 09:37:37;;;;;;;;;;;12.10;99.90;;;;;;5006815;28;19924;-78
2022/10/04 09:40:09;;;;;;;;;;;12.20;99.90;;;;;;5007310;28;20204;-78
2022/10/04 09:42:35;;;;;;;;;;;12.30;99.90;;;;;;5007855;28;19924;-78
2022/10/04 09:45:26;;;;;;;;;;;12.40;99.90;;;;;;5008146;28;19909;-78
2022/10/04 09:48:25;;;;;;;;;;;12.50;99.90;;;;;;5007412;28;19921;-79
2022/10/04 09:51:29;;;;;;;;;;;12.60;99.90;;;;;;5005162;28;19917;-79
2022/10/04 09:54:14;;;;;;;;;;;12.80;99.90;;;;;;5006732;28;19941;-79
2022/10/04 09:56:47;;;;;;;;;;;12.90;99.90;;;;;;5008402;28;19917;-79
2022/10/04 09:59:34;;;;;;;;;;;12.90;99.90;;;;;;5006448;28;19977;-78
2022/10/04 10:01:59;;;;;;;;;;;13.10;99.90;;;;;;5007438;28;19918;-78
2022/10/04 10:04:28;;;;;;;;;;;13.20;99.90;;;;;;5007708;28;19951;-78
2022/10/04 10:07:33;;;;;;;;;;;13.30;99.90;;;;;;5006678;28;19918;-86
2022/10/04 10:13:39;;;;;;;;;;;13.60;99.90;;;;;;4985615;28;19984;-82
2022/10/04 10:16:28;;;;;;;;;;;13.70;99.90;;;;;;5000837;28;20006;-82
2022/10/04 10:19:19;;;;;;;;;;;13.90;99.90;;;;;;5001310;28;19918;-82
2022/10/04 10:21:50;;;;;;;;;;;14.00;99.90;;;;;;5012008;28;19917;-82
2022/10/04 10:24:42;;;;;;;;;;;14.20;99.90;;;;;;5024737;28;19987;-82
2022/10/04 10:27:26;;;;;;;;;;;14.40;99.90;;;;;;5025099;28;19910;-82
2022/10/04 10:30:16;;;;;;;;;;;14.60;99.90;;;;;;5025775;28;19913;-81
2022/10/04 10:33:00;;;;;;;;;;;14.70;99.90;;;;;;5019196;28;20058;-82
2022/10/04 10:35:47;;;;;;;;;;;14.90;99.90;;;;;;5014341;28;19914;-82
2022/10/04 10:38:39;;;;;;;;;;;15.10;99.90;;;;;;4986718;28;19910;-81
2022/10/04 10:41:40;;;;;;;;;;;15.30;99.90;;;;;;4986893;28;19988;-80
2022/10/04 10:44:32;;;;;;;;;;;15.60;99.90;;;;;;4968953;28;19910;-82
2022/10/04 10:47:25;;;;;;;;;;;15.90;99.90;;;;;;4985204;28;19910;-81
2022/10/04 10:49:56;;;;;;;;;;;16.20;99.90;;;;;;4987007;28;19937;-81
2022/10/04 10:52:41;;;;;;;;;;;16.40;99.90;;;;;;5016319;28;19910;-81
2022/10/04 10:55:28;;;;;;;;;;;16.60;99.90;;;;;;5004466;28;19917;-81
2022/10/04 10:58:12;;;;;;;;;;;16.90;99.90;;;;;;4985663;28;19910;-80
2022/10/04 11:00:58;;;;;;;;;;;17.10;99.90;;;;;;4986340;28;19910;-81
2022/10/04 11:03:33;;;;;;;;;;;17.30;99.90;;;;;;4985939;28;19918;-81
2022/10/04 11:06:10;;;;;;;;;;;17.50;99.90;;;;;;4986150;28;19998;-81
2022/10/04 11:09:14;;;;;;;;;;;17.60;99.90;;;;;;4969159;28;19914;-81
2022/10/04 11:12:08;;;;;;;;;;;17.70;99.90;;;;;;5003018;28;19918;-81
2022/10/04 11:15:02;;;;;;;;;;;17.90;99.90;;;;;;5005649;28;19913;-82
2022/10/04 11:18:03;;;;;;;;;;;18.30;99.90;;;;;;5003646;28;19973;-82
2022/10/04 11:20:43;;;;;;;;;;;18.50;99.90;;;;;;5009962;28;20109;-81
2022/10/04 11:23:47;;;;;;;;;;;18.80;99.90;;;;;;5005421;28;19976;-82
2022/10/04 11:26:31;;;;;;;;;;;19.20;99.90;;;;;;5020911;28;19910;-82
2022/10/04 11:28:59;;;;;;;;;;;19.40;99.90;;;;;;5023559;28;19914;-82
2022/10/04 11:31:53;;;;;;;;;;;19.60;99.90;;;;;;5007578;28;19924;-82
2022/10/04 11:34:34;;;;;;;;;;;19.90;99.90;;;;;;5007586;28;19918;-82
2022/10/04 11:37:04;;;;;;;;;;;20.30;99.90;;;;;;5023395;28;20101;-82
2022/10/04 11:39:29;;;;;;;;;;;20.70;99.90;;;;;;5007504;28;19964;-83
2022/10/04 11:42:06;;;;;;;;;;;21.30;99.90;;;;;;5007976;28;19913;-82
2022/10/04 11:44:35;;;;;;;;;;;21.60;99.90;;;;;;5005876;28;20208;-76
2022/10/04 11:47:06;;;;;;;;;;;22.00;99.90;;;;;;5005510;28;20256;-84
2022/10/04 11:49:55;;;;;;;;;;;22.40;96.40;;;;;;5029994;28;19918;-82
2022/10/04 11:52:39;;;;;;;;;;;22.80;95.60;;;;;;5010020;28;19941;-81
2022/10/04 11:55:30;;;;;;;;;;;23.40;91.30;;;;;;5006078;28;19913;-79
2022/10/04 11:58:38;;;;;;;;;;;23.70;89.00;;;;;;5005253;28;19924;-77
2022/10/04 12:01:34;;;;;;;;;;;24.00;88.20;;;;;;4996120;28;19925;-76
2022/10/04 12:04:21;;;;;;;;;;;24.30;79.60;;;;;;5002673;28;19910;-74
2022/10/04 12:06:57;;;;;;;;;;;24.80;77.40;;;;;;5001476;28;19920;-74
2022/10/04 12:09:29;;;;;;;;;;;25.10;79.00;;;;;;5001901;28;19960;-72
2022/10/04 12:14:53;;;;;;;;;;;25.80;73.40;;;;;;5002713;28;19925;-73
2022/10/04 12:17:38;;;;;;;;;;;26.30;70.60;;;;;;5001409;28;19917;-73
2022/10/04 12:20:04;;;;;;;;;;;26.70;64.40;;;;;;5001548;28;19937;-73
2022/10/04 12:22:41;;;;;;;;;;;27.20;60.30;;;;;;4999631;28;20124;-73
2022/10/04 12:25:37;;;;;;;;;;;27.70;54.80;;;;;;5002502;28;19945;-73
2022/10/04 12:28:25;;;;;;;;;;;27.70;54.80;;;;;;5001335;28;19921;-74
2022/10/04 12:31:02;;;;;;;;;;;27.70;58.50;;;;;;5003633;28;19910;-74
2022/10/04 12:33:33;;;;;;;;;;;28.10;77.90;;;;;;5006363;28;19910;-73
2022/10/04 12:36:33;;;;;;;;;;;28.50;51.20;;;;;;5004832;28;19922;-73
2022/10/04 12:39:04;;;;;;;;;;;28.80;49.00;;;;;;5003638;28;19925;-73
2022/10/04 12:41:44;;;;;;;;;;;28.70;47.50;;;;;;5005933;28;19976;-73
2022/10/04 12:44:32;;;;;;;;;;;28.40;54.40;;;;;;5005193;28;19949;-73
2022/10/04 12:47:23;;;;;;;;;;;28.80;47.80;;;;;;5005301;28;19956;-73
2022/10/04 12:50:05;;;;;;;;;;;28.70;47.50;;;;;;5004776;28;19926;-73
2022/10/04 12:52:40;;;;;;;;;;;28.60;52.20;;;;;;4984820;28;20113;-73
2022/10/04 12:55:13;;;;;;;;;;;28.90;49.00;;;;;;4985361;28;19910;-73
2022/10/04 12:58:22;;;;;;;;;;;29.30;44.60;;;;;;5004260;28;19910;-73
2022/10/04 13:00:48;;;;;;;;;;;28.70;49.90;;;;;;5003874;28;19910;-73
2022/10/04 13:03:34;;;;;;;;;;;28.60;45.80;;;;;;5004118;28;19909;-73
2022/10/04 13:06:06;;;;;;;;;;;28.30;50.50;;;;;;5004265;28;20263;-73
2022/10/04 13:09:16;;;;;;;;;;;28.30;51.00;;;;;;5003562;28;19953;-73
2022/10/04 13:12:03;;;;;;;;;;;28.50;47.20;;;;;;4994238;28;20193;-73
2022/10/04 13:14:58;;;;;;;;;;;28.30;47.90;;;;;;4985923;28;20015;-73
2022/10/04 13:17:33;;;;;;;;;;;28.10;49.10;;;;;;4999769;28;19914;-74
2022/10/04 13:19:58;;;;;;;;;;;28.50;49.30;;;;;;5005565;28;19909;-73
2022/10/04 13:22:35;;;;;;;;;;;28.70;49.40;;;;;;5004284;28;19925;-74
2022/10/04 13:25:21;;;;;;;;;;;28.70;52.70;;;;;;5004146;28;19917;-73
2022/10/04 13:28:04;;;;;;;;;;;29.40;50.10;;;;;;5003511;28;19978;-74
2022/10/04 13:30:55;;;;;;;;;;;30.10;50.00;;;;;;5004517;28;19925;-74
2022/10/04 13:33:28;;;;;;;;;;;30.40;44.40;;;;;;5004309;28;19929;-74
2022/10/04 13:36:03;;;;;;;;;;;30.70;42.30;;;;;;4984719;28;19981;-73
2022/10/04 13:38:51;;;;;;;;;;;30.70;41.20;;;;;;4984091;28;19922;-73
2022/10/04 13:41:22;;;;;;;;;;;30.50;41.50;;;;;;4988182;28;19913;-73
2022/10/04 13:44:00;;;;;;;;;;;29.90;43.40;;;;;;5004045;28;19972;-73
2022/10/04 13:46:38;;;;;;;;;;;29.40;44.10;;;;;;5003622;28;19984;-73
2022/10/04 13:49:46;;;;;;;;;;;29.30;44.00;;;;;;5002718;28;20128;-74
2022/10/04 13:57:50;;;;;;;;;;;28.60;47.10;;;;;;4985052;28;19965;-73
2022/10/04 14:00:28;;;;;;;;;;;28.40;51.40;;;;;;4984087;28;19911;-73
2022/10/04 14:03:12;;;;;;;;;;;28.50;50.20;;;;;;4984349;28;19954;-73
2022/10/04 14:05:57;;;;;;;;;;;28.50;50.50;;;;;;4991949;28;19976;-73
2022/10/04 14:08:39;;;;;;;;;;;28.90;47.60;;;;;;5003423;28;19960;-73
2022/10/04 14:11:33;;;;;;;;;;;28.50;46.70;;;;;;5003323;28;19918;-73
2022/10/04 14:14:20;;;;;;;;;;;27.40;52.10;;;;;;5004668;28;19985;-73
2022/10/04 14:17:11;;;;;;;;;;;26.80;52.50;;;;;;5004034;28;19937;-73
2022/10/04 14:20:04;;;;;;;;;;;26.40;56.30;;;;;;4983846;28;19953;-73
2022/10/04 14:22:48;;;;;;;;;;;26.60;57.10;;;;;;4984060;28;20160;-73
2022/10/04 14:25:19;;;;;;;;;;;27.10;55.50;;;;;;4984882;28;19933;-73
2022/10/04 14:28:09;;;;;;;;;;;27.50;52.70;;;;;;4984630;28;19929;-73
2022/10/04 14:30:50;;;;;;;;;;;27.60;54.50;;;;;;4967600;28;19981;-74
2022/10/04 14:33:24;;;;;;;;;;;27.70;54.00;;;;;;4983617;28;19910;-73
2022/10/04 14:36:07;;;;;;;;;;;27.20;68.30;;;;;;4983760;28;20108;-73
2022/10/04 14:38:37;;;;;;;;;;;26.70;62.30;;;;;;4983734;28;20201;-73
2022/10/04 14:41:43;;;;;;;;;;;25.80;58.20;;;;;;4983699;28;19910;-73
2022/10/04 14:44:22;;;;;;;;;;;24.80;62.30;;;;;;4984654;28;19992;-73
2022/10/04 14:46:53;;;;;;;;;;;23.30;74.90;;;;;;4984249;28;19914;-73
2022/10/04 14:49:19;;;;;;;;;;;22.20;96.10;;;;;;5001514;28;20212;-73
2022/10/04 14:52:01;;;;;;;;;;;21.50;88.40;;;;;;5019212;28;19945;-74
2022/10/04 14:54:39;;;;;;;;;;;20.80;93.30;;;;;;5003950;28;19910;-73
2022/10/04 14:57:15;;;;;;;;;;;20.30;95.30;;;;;;5003460;28;19914;-73
2022/10/04 15:00:05;;;;;;;;;;;19.70;99.90;;;;;;5002704;28;19977;-73
2022/10/04 15:02:31;;;;;;;;;;;19.30;99.90;;;;;;5003858;28;19914;-73
2022/10/04 15:05:11;;;;;;;;;;;19.00;99.90;;;;;;5018559;28;19913;-73
2022/10/04 15:07:39;;;;;;;;;;;18.70;99.90;;;;;;5004009;28;20213;-74
2022/10/04 15:10:34;;;;;;;;;;;18.50;99.90;;;;;;5002713;28;19922;-73
2022/10/04 15:13:14;;;;;;;;;;;18.40;99.90;;;;;;5002746;28;19925;-73
2022/10/04 15:15:40;;;;;;;;;;;18.20;99.90;;;;;;5001986;28;19924;-73
2022/10/04 15:18:28;;;;;;;;;;;17.90;99.90;;;;;;5002178;28;19914;-73
2022/10/04 15:21:19;;;;;;;;;;;17.70;99.90;;;;;;5002446;28;19913;-73
2022/10/04 15:23:46;;;;;;;;;;;17.50;99.90;;;;;;5002425;28;19988;-73
2022/10/04 15:26:18;;;;;;;;;;;17.40;99.90;;;;;;5002937;28;19952;-73
2022/10/04 15:28:50;;;;;;;;;;;17.40;99.90;;;;;;5001930;28;19921;-73
2022/10/04 15:31:28;;;;;;;;;;;17.40;99.90;;;;;;5019799;28;19914;-76
2022/10/04 15:34:18;;;;;;;;;;;17.50;99.90;;;;;;5022731;28;19999;-76
2022/10/04 15:37:18;;;;;;;;;;;17.50;99.90;;;;;;5022712;28;19909;-76
2022/10/04 15:39:53;;;;;;;;;;;17.50;99.90;;;;;;5005485;28;19951;-76
2022/10/04 15:42:29;;;;;;;;;;;17.50;99.90;;;;;;5021708;28;19980;-76
2022/10/04 15:45:14;;;;;;;;;;;17.50;99.90;;;;;;5021772;28;20004;-76
2022/10/04 15:47:49;;;;;;;;;;;17.50;99.90;;;;;;5018602;28;19925;-77
2022/10/04 15:50:22;;;;;;;;;;;17.30;99.90;;;;;;5002959;28;19925;-77
2022/10/04 15:53:23;;;;;;;;;;;17.10;99.90;;;;;;4985698;28;19910;-76